sensor_id;sensor_type;location;lat;lon;timestamp;temperature;humidity
22212;DHT22;11275;52.488;13.462;2023-02-15T00:00:39;6.20;99.90
22212;DHT22;11275;52.488;13.462;2023-02-15T00:03:05;6.10;99.90
22212;DHT22;11275;52.488;13.462;2023-02-15T00:05:30;6.10;99.90
22212;DHT22;11275;52.488;13.462;2023-02-15T00:07:56;6.10;99.90
22212;DHT22;11275;52.488;13.462;2023-02-15T00:10:22;6.10;99.90
22212;DHT22;11275;52.488;13.462;2023-02-15T00:12:48;6.10;99.90
22212;DHT22;11275;52.488;13.462;2023-02-15T00:15:14;6.00;99.90
22212;DHT22;11275;52.488;13.462;2023-02-15T00:17:39;6.00;99.90
22212;DHT22;11275;52.488;13.462;2023-02-15T00:20:05;6.00;99.90
22212;DHT22;11275;52.488;13.462;2023-02-15T00:22:31;5.90;99.90
22212;DHT22;11275;52.488;13.462;2023-02-15T00:24:57;5.90;99.90
22212;DHT22;11275;52.488;13.462;2023-02-15T00:27:22;5.90;99.90
22212;DHT22;11275;52.488;13.462;2023-02-15T00:29:48;5.80;99.90
22212;DHT22;11275;52.488;13.462;2023-02-15T00:32:13;5.80;99.90
22212;DHT22;11275;52.488;13.462;2023-02-15T00:34:39;5.70;99.90
22212;DHT22;11275;52.488;13.462;2023-02-15T00:37:04;5.70;99.90
22212;DHT22;11275;52.488;13.462;2023-02-15T00:39:30;5.60;99.90
22212;DHT22;11275;52.488;13.462;2023-02-15T00:41:56;5.60;99.90
22212;DHT22;11275;52.488;13.462;2023-02-15T00:44:21;5.60;99.90
22212;DHT22;11275;52.488;13.462;2023-02-15T00:46:47;5.60;99.90
22212;DHT22;11275;52.488;13.462;2023-02-15T00:49:12;5.60;99.90
22212;DHT22;11275;52.488;13.462;2023-02-15T00:51:38;5.60;99.90
22212;DHT22;11275;52.488;13.462;2023-02-15T00:54:05;5.40;99.90
22212;DHT22;11275;52.488;13.462;2023-02-15T00:56:30;5.40;99.90
22212;DHT22;11275;52.488;13.462;2023-02-15T00:58:56;5.40;99.90
22212;DHT22;11275;52.488;13.462;2023-02-15T01:01:22;5.30;99.90
22212;DHT22;11275;52.488;13.462;2023-02-15T01:03:48;5.30;99.90
22212;DHT22;11275;52.488;13.462;2023-02-15T01:06:14;5.30;99.90
22212;DHT22;11275;52.488;13.462;2023-02-15T01:08:40;5.30;99.90
22212;DHT22;11275;52.488;13.462;2023-02-15T01:11:07;5.30;99.90
22212;DHT22;11275;52.488;13.462;2023-02-15T01:13:33;5.20;99.90
22212;DHT22;11275;52.488;13.462;2023-02-15T01:16:00;5.20;99.90
22212;DHT22;11275;52.488;13.462;2023-02-15T01:18:25;5.10;99.90
22212;DHT22;11275;52.488;13.462;2023-02-15T01:20:51;5.00;99.90
22212;DHT22;11275;52.488;13.462;2023-02-15T01:23:17;5.00;99.90
22212;DHT22;11275;52.488;13.462;2023-02-15T01:25:43;5.00;99.90
22212;DHT22;11275;52.488;13.462;2023-02-15T01:28:08;5.00;99.90
22212;DHT22;11275;52.488;13.462;2023-02-15T01:30:34;5.00;99.90
22212;DHT22;11275;52.488;13.462;2023-02-15T01:32:59;5.00;99.90
22212;DHT22;11275;52.488;13.462;2023-02-15T01:35:26;4.90;99.90
22212;DHT22;11275;52.488;13.462;2023-02-15T01:37:52;4.90;99.90
22212;DHT22;11275;52.488;13.462;2023-02-15T01:40:18;4.90;99.90
22212;DHT22;11275;52.488;13.462;2023-02-15T01:42:43;4.90;99.90
22212;DHT22;11275;52.488;13.462;2023-02-15T01:48:00;4.90;99.90
22212;DHT22;11275;52.488;13.462;2023-02-15T01:50:28;4.90;99.90
22212;DHT22;11275;52.488;13.462;2023-02-15T01:52:58;4.80;99.90
22212;DHT22;11275;52.488;13.462;2023-02-15T01:55:27;4.80;99.90
22212;DHT22;11275;52.488;13.462;2023-02-15T01:57:54;4.80;99.90
22212;DHT22;11275;52.488;13.462;2023-02-15T02:00:19;4.70;99.90
22212;DHT22;11275;52.488;13.462;2023-02-15T02:05:34;4.70;99.90
22212;DHT22;11275;52.488;13.462;2023-02-15T02:07:59;4.60;99.90
22212;DHT22;11275;52.488;13.462;2023-02-15T02:10:26;4.50;99.90
22212;DHT22;11275;52.488;13.462;2023-02-15T02:12:54;4.40;99.90
22212;DHT22;11275;52.488;13.462;2023-02-15T02:15:22;4.40;99.90
22212;DHT22;11275;52.488;13.462;2023-02-15T02:18:02;4.40;99.90
22212;DHT22;11275;52.488;13.462;2023-02-15T02:25:45;4.30;99.90
22212;DHT22;11275;52.488;13.462;2023-02-15T02:36:14;4.30;99.90
22212;DHT22;11275;52.488;13.462;2023-02-15T02:41:26;4.30;99.90
22212;DHT22;11275;52.488;13.462;2023-02-15T02:43:59;4.30;99.90
22212;DHT22;11275;52.488;13.462;2023-02-15T02:46:37;4.20;99.90
22212;DHT22;11275;52.488;13.462;2023-02-15T02:49:03;4.00;99.90
22212;DHT22;11275;52.488;13.462;2023-02-15T02:51:29;3.80;99.90
22212;DHT22;11275;52.488;13.462;2023-02-15T02:53:55;3.80;99.90
22212;DHT22;11275;52.488;13.462;2023-02-15T02:56:55;3.80;99.90
22212;DHT22;11275;52.488;13.462;2023-02-15T02:59:16;3.90;99.90
22212;DHT22;11275;52.488;13.462;2023-02-15T03:01:48;3.90;99.90
22212;DHT22;11275;52.488;13.462;2023-02-15T03:04:59;3.90;99.90
22212;DHT22;11275;52.488;13.462;2023-02-15T03:07:06;3.90;99.90
22212;DHT22;11275;52.488;13.462;2023-02-15T03:09:39;3.90;99.90
22212;DHT22;11275;52.488;13.462;2023-02-15T03:12:26;3.90;99.90
22212;DHT22;11275;52.488;13.462;2023-02-15T03:15:15;3.90;99.90
22212;DHT22;11275;52.488;13.462;2023-02-15T03:17:46;3.90;99.90
22212;DHT22;11275;52.488;13.462;2023-02-15T03:22:39;3.70;99.90
22212;DHT22;11275;52.488;13.462;2023-02-15T03:27:41;3.50;99.90
22212;DHT22;11275;52.488;13.462;2023-02-15T03:30:07;3.50;99.90
22212;DHT22;11275;52.488;13.462;2023-02-15T03:32:34;3.30;99.90
22212;DHT22;11275;52.488;13.462;2023-02-15T03:35:00;3.20;99.90
22212;DHT22;11275;52.488;13.462;2023-02-15T03:37:27;3.20;99.90
22212;DHT22;11275;52.488;13.462;2023-02-15T03:42:49;3.30;99.90
22212;DHT22;11275;52.488;13.462;2023-02-15T03:45:22;3.30;99.90
22212;DHT22;11275;52.488;13.462;2023-02-15T03:47:49;3.30;99.90
22212;DHT22;11275;52.488;13.462;2023-02-15T03:50:20;3.10;99.90
22212;DHT22;11275;52.488;13.462;2023-02-15T03:53:06;3.00;99.90
22212;DHT22;11275;52.488;13.462;2023-02-15T03:55:33;3.00;99.90
22212;DHT22;11275;52.488;13.462;2023-02-15T03:57:59;2.90;99.90
22212;DHT22;11275;52.488;13.462;2023-02-15T04:00:45;2.70;99.90
22212;DHT22;11275;52.488;13.462;2023-02-15T04:03:34;2.70;99.90
22212;DHT22;11275;52.488;13.462;2023-02-15T04:06:02;2.80;99.90
22212;DHT22;11275;52.488;13.462;2023-02-15T04:08:28;2.90;99.90
22212;DHT22;11275;52.488;13.462;2023-02-15T04:11:21;2.90;99.90
22212;DHT22;11275;52.488;13.462;2023-02-15T04:13:47;2.90;99.90
22212;DHT22;11275;52.488;13.462;2023-02-15T04:16:12;2.90;99.90
22212;DHT22;11275;52.488;13.462;2023-02-15T04:18:42;3.00;99.90
22212;DHT22;11275;52.488;13.462;2023-02-15T04:21:27;2.90;99.90
22212;DHT22;11275;52.488;13.462;2023-02-15T04:24:12;2.80;99.90
22212;DHT22;11275;52.488;13.462;2023-02-15T04:26:56;2.70;99.90
22212;DHT22;11275;52.488;13.462;2023-02-15T04:29:22;2.60;99.90
22212;DHT22;11275;52.488;13.462;2023-02-15T04:31:49;2.60;99.90
22212;DHT22;11275;52.488;13.462;2023-02-15T04:34:14;2.60;99.90
22212;DHT22;11275;52.488;13.462;2023-02-15T04:36:40;2.50;99.90
22212;DHT22;11275;52.488;13.462;2023-02-15T04:39:06;2.60;99.90
22212;DHT22;11275;52.488;13.462;2023-02-15T04:41:32;2.50;99.90
22212;DHT22;11275;52.488;13.462;2023-02-15T04:43:58;2.60;99.90
22212;DHT22;11275;52.488;13.462;2023-02-15T04:46:24;2.60;99.90
22212;DHT22;11275;52.488;13.462;2023-02-15T04:48:50;2.70;99.90
22212;DHT22;11275;52.488;13.462;2023-02-15T04:51:16;2.70;99.90
22212;DHT22;11275;52.488;13.462;2023-02-15T04:53:41;2.70;99.90
22212;DHT22;11275;52.488;13.462;2023-02-15T04:56:07;2.70;99.90
22212;DHT22;11275;52.488;13.462;2023-02-15T04:58:32;2.70;99.90
22212;DHT22;11275;52.488;13.462;2023-02-15T05:01:00;2.60;99.90
22212;DHT22;11275;52.488;13.462;2023-02-15T05:03:26;2.60;99.90
22212;DHT22;11275;52.488;13.462;2023-02-15T05:05:52;2.60;99.90
22212;DHT22;11275;52.488;13.462;2023-02-15T05:08:20;2.60;99.90
22212;DHT22;11275;52.488;13.462;2023-02-15T05:10:51;2.50;99.90
22212;DHT22;11275;52.488;13.462;2023-02-15T05:13:19;2.50;99.90
22212;DHT22;11275;52.488;13.462;2023-02-15T05:15:49;2.50;99.90
22212;DHT22;11275;52.488;13.462;2023-02-15T05:18:15;2.50;99.90
22212;DHT22;11275;52.488;13.462;2023-02-15T05:20:41;2.50;99.90
22212;DHT22;11275;52.488;13.462;2023-02-15T05:23:09;2.50;99.90
22212;DHT22;11275;52.488;13.462;2023-02-15T05:25:35;2.40;99.90
22212;DHT22;11275;52.488;13.462;2023-02-15T05:28:19;2.40;99.90
22212;DHT22;11275;52.488;13.462;2023-02-15T05:30:45;2.50;99.90
22212;DHT22;11275;52.488;13.462;2023-02-15T05:33:16;2.60;99.90
22212;DHT22;11275;52.488;13.462;2023-02-15T05:35:44;2.70;99.90
22212;DHT22;11275;52.488;13.462;2023-02-15T05:38:13;2.70;99.90
22212;DHT22;11275;52.488;13.462;2023-02-15T05:40:44;2.70;99.90
22212;DHT22;11275;52.488;13.462;2023-02-15T05:43:17;2.70;99.90
22212;DHT22;11275;52.488;13.462;2023-02-15T05:48:32;2.70;99.90
22212;DHT22;11275;52.488;13.462;2023-02-15T05:51:02;2.70;99.90
22212;DHT22;11275;52.488;13.462;2023-02-15T05:53:43;2.60;99.90
22212;DHT22;11275;52.488;13.462;2023-02-15T05:56:17;2.60;99.90
22212;DHT22;11275;52.488;13.462;2023-02-15T05:58:45;2.60;99.90
22212;DHT22;11275;52.488;13.462;2023-02-15T06:01:14;2.60;99.90
22212;DHT22;11275;52.488;13.462;2023-02-15T06:03:42;2.60;99.90
22212;DHT22;11275;52.488;13.462;2023-02-15T06:06:17;2.70;99.90
22212;DHT22;11275;52.488;13.462;2023-02-15T06:08:42;2.60;99.90
22212;DHT22;11275;52.488;13.462;2023-02-15T06:11:08;2.70;99.90
22212;DHT22;11275;52.488;13.462;2023-02-15T06:13:34;2.60;99.90
22212;DHT22;11275;52.488;13.462;2023-02-15T06:16:06;2.50;99.90
22212;DHT22;11275;52.488;13.462;2023-02-15T06:18:40;2.40;99.90
22212;DHT22;11275;52.488;13.462;2023-02-15T06:21:11;2.20;99.90
22212;DHT22;11275;52.488;13.462;2023-02-15T06:27:00;2.00;99.90
22212;DHT22;11275;52.488;13.462;2023-02-15T06:29:31;2.00;99.90
22212;DHT22;11275;52.488;13.462;2023-02-15T06:31:57;2.10;99.90
22212;DHT22;11275;52.488;13.462;2023-02-15T06:34:23;2.20;99.90
22212;DHT22;11275;52.488;13.462;2023-02-15T06:36:49;2.00;99.90
22212;DHT22;11275;52.488;13.462;2023-02-15T06:39:14;2.20;99.90
22212;DHT22;11275;52.488;13.462;2023-02-15T06:41:47;2.40;99.90
22212;DHT22;11275;52.488;13.462;2023-02-15T06:44:15;2.60;99.90
22212;DHT22;11275;52.488;13.462;2023-02-15T06:46:43;2.70;99.90
22212;DHT22;11275;52.488;13.462;2023-02-15T06:49:19;2.80;99.90
22212;DHT22;11275;52.488;13.462;2023-02-15T06:51:47;2.90;99.90
22212;DHT22;11275;52.488;13.462;2023-02-15T06:54:12;2.90;99.90
22212;DHT22;11275;52.488;13.462;2023-02-15T06:56:41;3.00;99.90
22212;DHT22;11275;52.488;13.462;2023-02-15T06:59:11;2.90;99.90
22212;DHT22;11275;52.488;13.462;2023-02-15T07:01:44;2.90;99.90
22212;DHT22;11275;52.488;13.462;2023-02-15T07:04:22;2.90;99.90
22212;DHT22;11275;52.488;13.462;2023-02-15T07:07:00;2.90;99.90
22212;DHT22;11275;52.488;13.462;2023-02-15T07:09:26;3.00;99.90
22212;DHT22;11275;52.488;13.462;2023-02-15T07:11:51;3.10;99.90
22212;DHT22;11275;52.488;13.462;2023-02-15T07:14:35;3.10;99.90
22212;DHT22;11275;52.488;13.462;2023-02-15T07:17:08;3.20;99.90
22212;DHT22;11275;52.488;13.462;2023-02-15T07:19:34;3.20;99.90
22212;DHT22;11275;52.488;13.462;2023-02-15T07:22:05;3.10;99.90
22212;DHT22;11275;52.488;13.462;2023-02-15T07:24:41;3.00;99.90
22212;DHT22;11275;52.488;13.462;2023-02-15T07:27:18;3.00;99.90
22212;DHT22;11275;52.488;13.462;2023-02-15T07:29:54;3.10;99.90
22212;DHT22;11275;52.488;13.462;2023-02-15T07:32:25;3.20;99.90
22212;DHT22;11275;52.488;13.462;2023-02-15T07:35:12;3.20;99.90
22212;DHT22;11275;52.488;13.462;2023-02-15T07:37:46;3.20;99.90
22212;DHT22;11275;52.488;13.462;2023-02-15T07:40:30;3.20;99.90
22212;DHT22;11275;52.488;13.462;2023-02-15T07:43:16;3.30;99.90
22212;DHT22;11275;52.488;13.462;2023-02-15T07:45:50;3.30;99.90
22212;DHT22;11275;52.488;13.462;2023-02-15T07:48:19;3.30;99.90
22212;DHT22;11275;52.488;13.462;2023-02-15T07:50:56;3.30;99.90
22212;DHT22;11275;52.488;13.462;2023-02-15T07:53:28;3.30;99.90
22212;DHT22;11275;52.488;13.462;2023-02-15T07:56:02;3.30;99.90
22212;DHT22;11275;52.488;13.462;2023-02-15T07:58:30;3.40;99.90
22212;DHT22;11275;52.488;13.462;2023-02-15T08:01:14;3.40;99.90
22212;DHT22;11275;52.488;13.462;2023-02-15T08:03:47;3.40;99.90
22212;DHT22;11275;52.488;13.462;2023-02-15T08:06:31;3.50;99.90
22212;DHT22;11275;52.488;13.462;2023-02-15T08:09:05;3.60;99.90
22212;DHT22;11275;52.488;13.462;2023-02-15T08:11:35;3.50;99.90
22212;DHT22;11275;52.488;13.462;2023-02-15T08:14:18;3.50;99.90
22212;DHT22;11275;52.488;13.462;2023-02-15T08:16:47;3.60;99.90
22212;DHT22;11275;52.488;13.462;2023-02-15T08:21:43;3.60;99.90
22212;DHT22;11275;52.488;13.462;2023-02-15T08:24:10;3.60;99.90
22212;DHT22;11275;52.488;13.462;2023-02-15T08:26:36;3.60;99.90
22212;DHT22;11275;52.488;13.462;2023-02-15T08:29:04;3.60;99.90
22212;DHT22;11275;52.488;13.462;2023-02-15T08:31:32;3.70;99.90
22212;DHT22;11275;52.488;13.462;2023-02-15T08:37:07;3.70;99.90
22212;DHT22;11275;52.488;13.462;2023-02-15T08:39:35;3.70;99.90
22212;DHT22;11275;52.488;13.462;2023-02-15T08:42:01;3.80;99.90
22212;DHT22;11275;52.488;13.462;2023-02-15T08:44:27;3.80;99.90
22212;DHT22;11275;52.488;13.462;2023-02-15T08:46:52;3.80;99.90
22212;DHT22;11275;52.488;13.462;2023-02-15T08:49:19;3.90;99.90
22212;DHT22;11275;52.488;13.462;2023-02-15T08:51:45;4.00;99.90
22212;DHT22;11275;52.488;13.462;2023-02-15T08:54:15;3.90;99.90
22212;DHT22;11275;52.488;13.462;2023-02-15T08:56:41;3.90;99.90
22212;DHT22;11275;52.488;13.462;2023-02-15T08:59:10;3.90;99.90
22212;DHT22;11275;52.488;13.462;2023-02-15T09:01:37;3.90;99.90
22212;DHT22;11275;52.488;13.462;2023-02-15T09:04:05;3.90;99.90
22212;DHT22;11275;52.488;13.462;2023-02-15T09:06:34;3.90;99.90
22212;DHT22;11275;52.488;13.462;2023-02-15T09:09:00;3.90;99.90
22212;DHT22;11275;52.488;13.462;2023-02-15T09:11:29;4.00;99.90
22212;DHT22;11275;52.488;13.462;2023-02-15T09:16:21;4.20;99.90
22212;DHT22;11275;52.488;13.462;2023-02-15T09:18:47;4.20;99.90
22212;DHT22;11275;52.488;13.462;2023-02-15T09:21:13;4.30;99.90
22212;DHT22;11275;52.488;13.462;2023-02-15T09:23:40;4.30;99.90
22212;DHT22;11275;52.488;13.462;2023-02-15T09:26:06;4.40;99.90
22212;DHT22;11275;52.488;13.462;2023-02-15T09:28:33;4.40;99.90
22212;DHT22;11275;52.488;13.462;2023-02-15T09:31:32;4.40;99.90
22212;DHT22;11275;52.488;13.462;2023-02-15T09:33:50;4.40;99.90
22212;DHT22;11275;52.488;13.462;2023-02-15T09:36:17;4.40;99.90
22212;DHT22;11275;52.488;13.462;2023-02-15T09:38:43;4.50;99.90
22212;DHT22;11275;52.488;13.462;2023-02-15T09:41:20;4.50;99.90
22212;DHT22;11275;52.488;13.462;2023-02-15T09:52:01;4.70;99.90
22212;DHT22;11275;52.488;13.462;2023-02-15T10:00:12;4.80;99.90
22212;DHT22;11275;52.488;13.462;2023-02-15T10:03:04;4.80;99.90
22212;DHT22;11275;52.488;13.462;2023-02-15T10:20:46;5.00;99.90
22212;DHT22;11275;52.488;13.462;2023-02-15T10:28:42;5.20;99.90
22212;DHT22;11275;52.488;13.462;2023-02-15T10:33:46;5.20;99.90
22212;DHT22;11275;52.488;13.462;2023-02-15T10:36:22;5.20;99.90
22212;DHT22;11275;52.488;13.462;2023-02-15T10:41:42;5.30;99.90
22212;DHT22;11275;52.488;13.462;2023-02-15T10:44:07;5.30;99.90
22212;DHT22;11275;52.488;13.462;2023-02-15T10:51:38;5.50;99.90
22212;DHT22;11275;52.488;13.462;2023-02-15T10:54:10;5.50;99.90
22212;DHT22;11275;52.488;13.462;2023-02-15T10:56:53;5.60;99.90
22212;DHT22;11275;52.488;13.462;2023-02-15T11:06:59;5.50;99.90
22212;DHT22;11275;52.488;13.462;2023-02-15T11:09:32;5.50;99.90
22212;DHT22;11275;52.488;13.462;2023-02-15T11:11:58;5.60;99.90
22212;DHT22;11275;52.488;13.462;2023-02-15T11:14:35;5.60;99.90
22212;DHT22;11275;52.488;13.462;2023-02-15T11:17:04;5.60;99.90
22212;DHT22;11275;52.488;13.462;2023-02-15T11:19:33;5.50;99.90
22212;DHT22;11275;52.488;13.462;2023-02-15T11:22:01;5.60;99.90
22212;DHT22;11275;52.488;13.462;2023-02-15T11:24:28;5.60;99.90
22212;DHT22;11275;52.488;13.462;2023-02-15T11:29:57;5.60;99.90
22212;DHT22;11275;52.488;13.462;2023-02-15T11:32:31;5.70;99.90
22212;DHT22;11275;52.488;13.462;2023-02-15T11:37:37;5.80;99.90
22212;DHT22;11275;52.488;13.462;2023-02-15T11:40:26;5.90;99.90
22212;DHT22;11275;52.488;13.462;2023-02-15T11:42:51;6.00;99.90
22212;DHT22;11275;52.488;13.462;2023-02-15T11:45:31;6.10;99.90
22212;DHT22;11275;52.488;13.462;2023-02-15T11:47:58;6.10;99.90
22212;DHT22;11275;52.488;13.462;2023-02-15T11:50:28;6.10;99.90
22212;DHT22;11275;52.488;13.462;2023-02-15T11:52:56;6.20;99.90
22212;DHT22;11275;52.488;13.462;2023-02-15T11:55:23;6.20;99.90
22212;DHT22;11275;52.488;13.462;2023-02-15T12:00:39;6.30;99.90
22212;DHT22;11275;52.488;13.462;2023-02-15T12:03:09;6.30;99.90
22212;DHT22;11275;52.488;13.462;2023-02-15T12:11:47;6.50;99.90
22212;DHT22;11275;52.488;13.462;2023-02-15T12:14:12;6.60;99.90
22212;DHT22;11275;52.488;13.462;2023-02-15T12:19:12;6.60;99.90
22212;DHT22;11275;52.488;13.462;2023-02-15T12:21:39;6.60;99.90
22212;DHT22;11275;52.488;13.462;2023-02-15T12:24:17;6.60;99.90
22212;DHT22;11275;52.488;13.462;2023-02-15T12:26:43;6.70;99.90
22212;DHT22;11275;52.488;13.462;2023-02-15T12:29:12;6.70;99.90
22212;DHT22;11275;52.488;13.462;2023-02-15T12:31:41;6.80;99.90
22212;DHT22;11275;52.488;13.462;2023-02-15T12:34:12;6.80;99.90
22212;DHT22;11275;52.488;13.462;2023-02-15T12:36:43;6.80;99.90
22212;DHT22;11275;52.488;13.462;2023-02-15T12:41:37;6.90;99.90
22212;DHT22;11275;52.488;13.462;2023-02-15T12:44:07;6.90;99.90
22212;DHT22;11275;52.488;13.462;2023-02-15T12:46:33;7.00;99.90
22212;DHT22;11275;52.488;13.462;2023-02-15T12:49:06;7.00;99.90
22212;DHT22;11275;52.488;13.462;2023-02-15T12:51:50;7.10;99.90
22212;DHT22;11275;52.488;13.462;2023-02-15T12:54:16;7.10;99.90
22212;DHT22;11275;52.488;13.462;2023-02-15T12:56:42;7.10;99.90
22212;DHT22;11275;52.488;13.462;2023-02-15T12:59:12;7.10;99.90
22212;DHT22;11275;52.488;13.462;2023-02-15T13:01:39;7.20;99.90
22212;DHT22;11275;52.488;13.462;2023-02-15T13:04:21;7.30;99.90
22212;DHT22;11275;52.488;13.462;2023-02-15T13:06:47;7.30;99.90
22212;DHT22;11275;52.488;13.462;2023-02-15T13:09:20;7.40;99.90
22212;DHT22;11275;52.488;13.462;2023-02-15T13:11:50;7.40;99.90
22212;DHT22;11275;52.488;13.462;2023-02-15T13:16:45;7.60;99.90
22212;DHT22;11275;52.488;13.462;2023-02-15T13:19:12;7.70;99.90
22212;DHT22;11275;52.488;13.462;2023-02-15T13:21:41;7.80;99.90
22212;DHT22;11275;52.488;13.462;2023-02-15T13:24:22;7.80;99.90
22212;DHT22;11275;52.488;13.462;2023-02-15T13:26:49;7.90;99.90
22212;DHT22;11275;52.488;13.462;2023-02-15T13:29:21;7.90;99.90
22212;DHT22;11275;52.488;13.462;2023-02-15T13:31:47;7.90;99.90
22212;DHT22;11275;52.488;13.462;2023-02-15T13:34:28;8.00;99.90
22212;DHT22;11275;52.488;13.462;2023-02-15T13:36:59;8.00;99.90
22212;DHT22;11275;52.488;13.462;2023-02-15T13:39:31;8.00;99.90
22212;DHT22;11275;52.488;13.462;2023-02-15T13:44:54;8.10;99.90
22212;DHT22;11275;52.488;13.462;2023-02-15T13:52:43;8.30;99.90
22212;DHT22;11275;52.488;13.462;2023-02-15T14:08:45;8.40;99.90
22212;DHT22;11275;52.488;13.462;2023-02-15T14:11:25;8.40;99.90
22212;DHT22;11275;52.488;13.462;2023-02-15T14:16:41;8.40;99.90
22212;DHT22;11275;52.488;13.462;2023-02-15T14:21:42;8.40;99.90
22212;DHT22;11275;52.488;13.462;2023-02-15T14:31:43;8.50;99.90
22212;DHT22;11275;52.488;13.462;2023-02-15T14:36:55;8.60;99.90
22212;DHT22;11275;52.488;13.462;2023-02-15T14:39:31;8.60;99.90
22212;DHT22;11275;52.488;13.462;2023-02-15T14:45:01;8.60;99.90
22212;DHT22;11275;52.488;13.462;2023-02-15T14:47:37;8.70;99.90
22212;DHT22;11275;52.488;13.462;2023-02-15T15:53:18;8.70;99.90
22212;DHT22;11275;52.488;13.462;2023-02-15T15:56:14;8.70;99.90
22212;DHT22;11275;52.488;13.462;2023-02-15T15:58:42;8.60;99.90
22212;DHT22;11275;52.488;13.462;2023-02-15T16:01:12;8.60;99.90
22212;DHT22;11275;52.488;13.462;2023-02-15T16:04:02;8.60;99.90
22212;DHT22;11275;52.488;13.462;2023-02-15T16:06:48;8.50;99.90
22212;DHT22;11275;52.488;13.462;2023-02-15T16:09:18;8.50;99.90
22212;DHT22;11275;52.488;13.462;2023-02-15T16:11:48;8.50;99.90
22212;DHT22;11275;52.488;13.462;2023-02-15T16:14:15;8.40;99.90
22212;DHT22;11275;52.488;13.462;2023-02-15T16:16:45;8.40;99.90
22212;DHT22;11275;52.488;13.462;2023-02-15T16:19:16;8.30;99.90
22212;DHT22;11275;52.488;13.462;2023-02-15T16:21:43;8.30;99.90
22212;DHT22;11275;52.488;13.462;2023-02-15T16:29:18;8.20;99.90
22212;DHT22;11275;52.488;13.462;2023-02-15T16:32:04;8.20;99.90
22212;DHT22;11275;52.488;13.462;2023-02-15T16:34:31;8.10;99.90
22212;DHT22;11275;52.488;13.462;2023-02-15T16:37:14;8.10;99.90
22212;DHT22;11275;52.488;13.462;2023-02-15T16:39:43;8.00;99.90
22212;DHT22;11275;52.488;13.462;2023-02-15T16:42:09;7.90;99.90
22212;DHT22;11275;52.488;13.462;2023-02-15T16:44:35;7.90;99.90
22212;DHT22;11275;52.488;13.462;2023-02-15T16:47:01;7.90;99.90
22212;DHT22;11275;52.488;13.462;2023-02-15T16:49:27;7.90;99.90
22212;DHT22;11275;52.488;13.462;2023-02-15T16:52:03;7.90;99.90
22212;DHT22;11275;52.488;13.462;2023-02-15T16:54:33;7.90;99.90
22212;DHT22;11275;52.488;13.462;2023-02-15T16:57:00;7.80;99.90
22212;DHT22;11275;52.488;13.462;2023-02-15T16:59:30;7.80;99.90
22212;DHT22;11275;52.488;13.462;2023-02-15T17:01:58;7.80;99.90
22212;DHT22;11275;52.488;13.462;2023-02-15T17:04:26;7.80;99.90
22212;DHT22;11275;52.488;13.462;2023-02-15T17:09:37;7.80;99.90
22212;DHT22;11275;52.488;13.462;2023-02-15T17:12:15;7.80;99.90
22212;DHT22;11275;52.488;13.462;2023-02-15T17:14:58;7.80;99.90
22212;DHT22;11275;52.488;13.462;2023-02-15T17:17:24;7.80;99.90
22212;DHT22;11275;52.488;13.462;2023-02-15T17:19:50;7.70;99.90
22212;DHT22;11275;52.488;13.462;2023-02-15T17:22:19;7.70;99.90
22212;DHT22;11275;52.488;13.462;2023-02-15T17:24:45;7.60;99.90
22212;DHT22;11275;52.488;13.462;2023-02-15T17:27:15;7.60;99.90
22212;DHT22;11275;52.488;13.462;2023-02-15T17:29:44;7.60;99.90
22212;DHT22;11275;52.488;13.462;2023-02-15T17:32:21;7.60;99.90
22212;DHT22;11275;52.488;13.462;2023-02-15T17:39:59;7.50;99.90
22212;DHT22;11275;52.488;13.462;2023-02-15T17:42:25;7.40;99.90
22212;DHT22;11275;52.488;13.462;2023-02-15T17:44:50;7.40;99.90
22212;DHT22;11275;52.488;13.462;2023-02-15T17:47:17;7.40;99.90
22212;DHT22;11275;52.488;13.462;2023-02-15T17:49:43;7.30;99.90
22212;DHT22;11275;52.488;13.462;2023-02-15T17:52:12;7.30;99.90
22212;DHT22;11275;52.488;13.462;2023-02-15T17:54:39;7.20;99.90
22212;DHT22;11275;52.488;13.462;2023-02-15T17:57:23;7.20;99.90
22212;DHT22;11275;52.488;13.462;2023-02-15T17:59:48;7.20;99.90
22212;DHT22;11275;52.488;13.462;2023-02-15T18:02:33;7.20;99.90
22212;DHT22;11275;52.488;13.462;2023-02-15T18:05:18;7.20;99.90
22212;DHT22;11275;52.488;13.462;2023-02-15T18:08:02;7.20;99.90
22212;DHT22;11275;52.488;13.462;2023-02-15T18:10:46;7.10;99.90
22212;DHT22;11275;52.488;13.462;2023-02-15T18:13:31;7.10;99.90
22212;DHT22;11275;52.488;13.462;2023-02-15T18:15:56;7.10;99.90
22212;DHT22;11275;52.488;13.462;2023-02-15T18:18:22;7.10;99.90
22212;DHT22;11275;52.488;13.462;2023-02-15T18:20:48;7.10;99.90
22212;DHT22;11275;52.488;13.462;2023-02-15T18:23:14;7.10;99.90
22212;DHT22;11275;52.488;13.462;2023-02-15T18:25:40;7.00;99.90
22212;DHT22;11275;52.488;13.462;2023-02-15T18:28:07;7.10;99.90
22212;DHT22;11275;52.488;13.462;2023-02-15T18:30:34;7.00;99.90
22212;DHT22;11275;52.488;13.462;2023-02-15T18:33:00;7.00;99.90
22212;DHT22;11275;52.488;13.462;2023-02-15T18:35:27;7.00;99.90
22212;DHT22;11275;52.488;13.462;2023-02-15T18:37:54;7.00;99.90
22212;DHT22;11275;52.488;13.462;2023-02-15T18:40:21;6.90;99.90
22212;DHT22;11275;52.488;13.462;2023-02-15T18:42:48;6.90;99.90
22212;DHT22;11275;52.488;13.462;2023-02-15T18:45:18;6.90;99.90
22212;DHT22;11275;52.488;13.462;2023-02-15T18:47:45;6.90;99.90
22212;DHT22;11275;52.488;13.462;2023-02-15T18:50:11;6.80;99.90
22212;DHT22;11275;52.488;13.462;2023-02-15T18:52:37;6.80;99.90
22212;DHT22;11275;52.488;13.462;2023-02-15T18:55:05;6.80;99.90
22212;DHT22;11275;52.488;13.462;2023-02-15T18:57:37;6.80;99.90
22212;DHT22;11275;52.488;13.462;2023-02-15T19:00:03;6.70;99.90
22212;DHT22;11275;52.488;13.462;2023-02-15T19:02:29;6.70;99.90
22212;DHT22;11275;52.488;13.462;2023-02-15T19:04:55;6.70;99.90
22212;DHT22;11275;52.488;13.462;2023-02-15T19:07:24;6.70;99.90
22212;DHT22;11275;52.488;13.462;2023-02-15T19:09:52;6.60;99.90
22212;DHT22;11275;52.488;13.462;2023-02-15T19:12:19;6.60;99.90
22212;DHT22;11275;52.488;13.462;2023-02-15T19:14:44;6.60;99.90
22212;DHT22;11275;52.488;13.462;2023-02-15T19:17:14;6.50;99.90
22212;DHT22;11275;52.488;13.462;2023-02-15T19:19:40;6.50;99.90
22212;DHT22;11275;52.488;13.462;2023-02-15T19:22:08;6.50;99.90
22212;DHT22;11275;52.488;13.462;2023-02-15T19:24:37;6.50;99.90
22212;DHT22;11275;52.488;13.462;2023-02-15T19:27:03;6.40;99.90
22212;DHT22;11275;52.488;13.462;2023-02-15T19:29:30;6.40;99.90
22212;DHT22;11275;52.488;13.462;2023-02-15T19:31:56;6.40;99.90
22212;DHT22;11275;52.488;13.462;2023-02-15T19:34:22;6.40;99.90
22212;DHT22;11275;52.488;13.462;2023-02-15T19:36:48;6.40;99.90
22212;DHT22;11275;52.488;13.462;2023-02-15T19:39:19;6.30;99.90
22212;DHT22;11275;52.488;13.462;2023-02-15T19:41:46;6.30;99.90